Time;durP1;ratioP1;P1;durP2;ratioP2;P2;SDS_P1;SDS_P2;PMS_P1;PMS_P2;Temp;Humidity;BMP_temperature;BMP_pressure;BME280_temperature;BME280_humidity;BME280_pressure;Samples;Min_cycle;Max_cycle;Signal;HPM_P1;HPM_P2
2023/07/04 00:00:44;;;;;;;2.92;1.83;;;20.50;99.90;;;;;;5052021;28;20209;-58
2023/07/04 00:03:10;;;;;;;3.03;1.92;;;20.50;99.90;;;;;;5052052;28;20240;-59
2023/07/04 00:05:38;;;;;;;2.40;1.80;;;20.50;99.90;;;;;;5051903;28;20205;-58
2023/07/04 00:08:05;;;;;;;4.03;1.67;;;20.50;99.90;;;;;;5051671;28;20229;-59
2023/07/04 00:10:32;;;;;;;4.60;1.65;;;20.50;99.90;;;;;;5051741;28;20769;-58
2023/07/04 00:12:58;;;;;;;3.55;1.75;;;20.50;99.90;;;;;;5051607;28;20233;-59
2023/07/04 00:15:25;;;;;;;3.83;2.13;;;20.50;99.90;;;;;;5051728;28;20237;-58
2023/07/04 00:17:53;;;;;;;4.50;2.08;;;20.40;99.90;;;;;;5051294;28;20281;-58
2023/07/04 00:20:20;;;;;;;2.50;1.83;;;20.40;99.90;;;;;;5051498;28;20201;-58
2023/07/04 00:22:47;;;;;;;3.83;1.80;;;20.50;99.90;;;;;;5051457;28;20217;-58
2023/07/04 00:25:14;;;;;;;4.00;1.85;;;20.60;99.90;;;;;;5051476;28;20731;-58
2023/07/04 00:27:40;;;;;;;3.10;1.73;;;20.60;99.90;;;;;;5051021;28;20782;-58
2023/07/04 00:30:10;;;;;;;1.80;1.58;;;20.70;99.90;;;;;;5051101;28;20210;-58
2023/07/04 00:32:37;;;;;;;2.95;1.70;;;20.80;99.90;;;;;;5051381;28;20201;-58
2023/07/04 00:35:06;;;;;;;3.42;1.70;;;20.80;99.90;;;;;;5051536;28;20581;-58
2023/07/04 00:37:33;;;;;;;2.95;1.55;;;20.70;99.90;;;;;;5050861;28;20666;-59
2023/07/04 00:40:02;;;;;;;4.65;1.83;;;20.70;99.90;;;;;;5051068;28;20221;-57
2023/07/04 00:42:29;;;;;;;3.30;1.90;;;20.60;99.90;;;;;;5051291;28;20209;-57
2023/07/04 00:44:58;;;;;;;3.53;1.63;;;20.60;99.90;;;;;;5051124;28;20216;-58
2023/07/04 00:47:33;;;;;;;2.72;1.77;;;20.60;99.90;;;;;;5050759;28;20294;-57
2023/07/04 00:50:07;;;;;;;3.63;1.80;;;20.60;99.90;;;;;;5050876;28;20271;-57
2023/07/04 00:52:38;;;;;;;3.80;1.83;;;20.60;99.90;;;;;;5051124;28;20617;-57
2023/07/04 00:55:10;;;;;;;2.50;1.48;;;20.50;99.90;;;;;;5051505;28;20231;-58
2023/07/04 00:57:37;;;;;;;2.45;1.50;;;20.60;99.90;;;;;;5051085;28;20629;-58
2023/07/04 01:00:15;;;;;;;5.35;2.03;;;20.70;99.90;;;;;;5051188;28;20209;-58
2023/07/04 01:02:45;;;;;;;2.58;1.40;;;20.70;99.90;;;;;;5051261;28;20237;-58
2023/07/04 01:05:14;;;;;;;2.67;1.73;;;20.60;99.90;;;;;;5051407;28;20217;-59
2023/07/04 01:07:47;;;;;;;2.53;1.73;;;20.70;99.90;;;;;;5050987;28;20221;-59
2023/07/04 01:10:19;;;;;;;3.38;1.75;;;20.70;99.90;;;;;;5051149;28;20248;-59
2023/07/04 01:12:46;;;;;;;2.67;1.70;;;20.80;99.90;;;;;;5050978;28;20565;-59
2023/07/04 01:15:13;;;;;;;1.95;1.40;;;20.80;99.90;;;;;;5050908;28;20296;-58
2023/07/04 01:17:42;;;;;;;2.40;1.48;;;20.80;99.90;;;;;;5050936;28;20240;-59
2023/07/04 01:20:12;;;;;;;3.40;1.73;;;20.90;99.90;;;;;;5050923;28;20316;-59
2023/07/04 01:22:47;;;;;;;3.13;1.98;;;20.80;99.90;;;;;;5051002;28;20595;-59
2023/07/04 01:25:20;;;;;;;2.78;1.70;;;20.80;99.90;;;;;;5051098;28;20205;-59
2023/07/04 01:27:51;;;;;;;3.22;1.80;;;20.70;99.90;;;;;;5050776;28;20221;-59
2023/07/04 01:30:19;;;;;;;2.85;1.48;;;20.80;99.90;;;;;;5051159;28;20213;-59
2023/07/04 01:32:52;;;;;;;1.90;1.33;;;20.80;99.90;;;;;;5050956;28;20209;-59
2023/07/04 01:35:19;;;;;;;3.72;1.60;;;20.90;99.90;;;;;;5050911;28;20209;-59
2023/07/04 01:37:45;;;;;;;3.28;1.75;;;20.90;99.90;;;;;;5050320;28;20628;-59
2023/07/04 01:40:12;;;;;;;2.20;1.65;;;21.00;99.90;;;;;;5050718;28;20214;-59
2023/07/04 01:42:40;;;;;;;3.20;1.60;;;21.00;99.90;;;;;;5052308;28;20677;-59
2023/07/04 01:45:10;;;;;;;3.00;1.60;;;20.90;99.90;;;;;;5054587;28;20682;-59
2023/07/04 01:47:37;;;;;;;3.13;2.00;;;20.90;99.90;;;;;;5054465;28;20229;-59
2023/07/04 01:50:06;;;;;;;4.68;1.80;;;20.90;99.90;;;;;;5054541;28;20213;-58
2023/07/04 01:52:33;;;;;;;3.38;1.80;;;20.80;99.90;;;;;;5054485;28;20206;-58
2023/07/04 01:55:00;;;;;;;2.13;1.40;;;20.80;99.90;;;;;;5054274;28;20526;-59
2023/07/04 01:57:27;;;;;;;2.83;1.77;;;20.80;99.90;;;;;;5054119;28;20283;-59
2023/07/04 01:59:54;;;;;;;2.75;1.85;;;20.80;99.90;;;;;;5054384;28;20291;-59
2023/07/04 02:02:22;;;;;;;2.88;1.70;;;20.80;99.90;;;;;;5054376;28;20209;-59
2023/07/04 02:04:49;;;;;;;3.72;1.55;;;20.80;99.90;;;;;;5054267;28;20670;-59
2023/07/04 02:07:15;;;;;;;2.70;1.60;;;20.70;99.90;;;;;;5053676;28;20226;-59
2023/07/04 02:09:43;;;;;;;4.03;1.80;;;20.70;99.90;;;;;;5053984;28;20267;-59
2023/07/04 02:12:10;;;;;;;3.88;1.98;;;20.70;99.90;;;;;;5054169;28;20205;-59
2023/07/04 02:14:37;;;;;;;3.45;1.77;;;20.60;99.90;;;;;;5053939;28;20217;-59
2023/07/04 02:17:04;;;;;;;4.25;1.73;;;20.60;99.90;;;;;;5053644;28;20229;-59
2023/07/04 02:19:32;;;;;;;3.83;1.50;;;20.60;99.90;;;;;;5053682;28;20260;-59
2023/07/04 02:21:59;;;;;;;3.42;1.67;;;20.50;99.90;;;;;;5054157;28;20387;-59
2023/07/04 02:24:25;;;;;;;3.22;1.55;;;20.60;99.90;;;;;;5054099;28;20267;-60
2023/07/04 02:26:53;;;;;;;2.50;1.63;;;20.60;99.90;;;;;;5053747;28;20202;-60
2023/07/04 02:29:20;;;;;;;2.58;1.70;;;20.60;99.90;;;;;;5053823;28;20229;-59
2023/07/04 02:31:46;;;;;;;1.75;1.58;;;20.50;99.90;;;;;;5053718;28;20331;-59
2023/07/04 02:34:13;;;;;;;2.28;1.50;;;20.50;99.90;;;;;;5053637;28;20599;-59
2023/07/04 02:36:41;;;;;;;3.35;1.40;;;20.50;99.90;;;;;;5053718;28;20282;-59
2023/07/04 02:39:08;;;;;;;2.20;1.63;;;20.60;99.90;;;;;;5053764;28;20229;-60
2023/07/04 02:41:34;;;;;;;2.75;1.73;;;20.60;99.90;;;;;;5053952;28;20274;-59
2023/07/04 02:44:01;;;;;;;2.30;1.50;;;20.50;99.90;;;;;;5053341;28;20568;-59
2023/07/04 02:46:28;;;;;;;4.40;2.05;;;20.50;99.90;;;;;;5053290;28;20669;-59
2023/07/04 02:48:54;;;;;;;9.07;2.20;;;20.60;99.90;;;;;;5053124;28;20229;-59
2023/07/04 02:51:21;;;;;;;2.53;1.52;;;20.50;99.90;;;;;;5053377;28;20209;-60
2023/07/04 02:53:49;;;;;;;3.30;1.80;;;20.50;99.90;;;;;;5053034;28;20624;-60
2023/07/04 02:56:16;;;;;;;2.55;1.95;;;20.40;99.90;;;;;;5052875;28;20297;-60
2023/07/04 02:58:43;;;;;;;6.20;2.22;;;20.30;99.90;;;;;;5053072;28;20234;-59
2023/07/04 03:01:10;;;;;;;3.70;2.13;;;20.30;99.90;;;;;;5053147;28;20213;-59
2023/07/04 03:03:36;;;;;;;3.40;2.17;;;20.30;99.90;;;;;;5053084;28;20210;-59
2023/07/04 03:06:04;;;;;;;3.38;1.85;;;20.30;99.90;;;;;;5052599;28;20263;-59
2023/07/04 03:08:31;;;;;;;4.03;2.30;;;20.30;99.90;;;;;;5053142;28;20312;-59
2023/07/04 03:10:59;;;;;;;3.65;2.05;;;20.40;99.90;;;;;;5053165;28;20267;-60
2023/07/04 03:13:26;;;;;;;2.40;1.55;;;20.30;99.90;;;;;;5053753;28;20634;-59
2023/07/04 03:15:53;;;;;;;4.03;2.20;;;20.30;99.90;;;;;;5053860;28;20271;-59
2023/07/04 03:18:19;;;;;;;5.63;1.83;;;20.30;99.90;;;;;;5053709;28;20248;-58
2023/07/04 03:20:46;;;;;;;5.50;2.40;;;20.30;99.90;;;;;;5053596;28;20209;-59
2023/07/04 03:23:13;;;;;;;2.83;1.67;;;20.20;99.90;;;;;;5053361;28;20210;-59
2023/07/04 03:25:39;;;;;;;5.38;3.10;;;20.20;99.90;;;;;;5052877;28;20205;-59
2023/07/04 03:28:07;;;;;;;3.85;2.30;;;20.20;99.90;;;;;;5052491;28;20240;-60
2023/07/04 03:30:34;;;;;;;4.35;2.30;;;20.20;99.90;;;;;;5052659;28;20213;-59
2023/07/04 03:33:01;;;;;;;5.35;2.38;;;20.20;99.90;;;;;;5052112;28;20275;-59
2023/07/04 03:35:27;;;;;;;4.32;2.17;;;20.20;99.90;;;;;;5052546;28;20275;-59
2023/07/04 03:37:55;;;;;;;4.72;2.40;;;20.20;99.90;;;;;;5051935;28;20250;-59
2023/07/04 03:40:22;;;;;;;5.10;2.78;;;20.30;99.90;;;;;;5052285;28;20237;-59
2023/07/04 03:42:49;;;;;;;12.43;7.85;;;20.30;99.90;;;;;;5052284;28;20617;-60
2023/07/04 03:45:17;;;;;;;4.70;2.40;;;20.40;99.90;;;;;;5052180;28;20217;-59
2023/07/04 03:47:44;;;;;;;3.65;2.05;;;20.40;99.90;;;;;;5051756;28;20226;-58
2023/07/04 03:50:13;;;;;;;3.83;2.15;;;20.50;99.90;;;;;;5052090;28;20358;-58
2023/07/04 03:52:39;;;;;;;4.00;3.17;;;20.50;99.90;;;;;;5051941;28;20214;-58
2023/07/04 03:55:07;;;;;;;2.83;2.03;;;20.60;99.90;;;;;;5051938;28;20205;-59
2023/07/04 03:57:34;;;;;;;3.35;1.92;;;20.60;99.90;;;;;;5051559;28;20261;-58
2023/07/04 04:00:01;;;;;;;3.72;2.50;;;20.50;99.90;;;;;;5051542;28;20213;-59
2023/07/04 04:02:29;;;;;;;4.35;2.78;;;20.60;99.90;;;;;;5051909;28;20292;-59
2023/07/04 04:04:56;;;;;;;4.63;2.30;;;20.60;99.90;;;;;;5050928;28;20305;-59
2023/07/04 04:07:23;;;;;;;2.97;2.20;;;20.60;99.90;;;;;;5051601;28;20202;-59
2023/07/04 04:09:50;;;;;;;3.13;1.90;;;20.60;99.90;;;;;;5051823;28;20233;-59
2023/07/04 04:12:17;;;;;;;4.63;1.98;;;20.70;99.90;;;;;;5051657;28;20263;-59
2023/07/04 04:14:44;;;;;;;3.00;2.17;;;20.70;99.90;;;;;;5051707;28;20201;-59
2023/07/04 04:17:10;;;;;;;4.82;2.70;;;20.80;99.90;;;;;;5051248;28;20267;-59
2023/07/04 04:19:38;;;;;;;4.40;2.45;;;20.90;99.90;;;;;;5051290;28;20218;-59
2023/07/04 04:22:05;;;;;;;5.57;2.75;;;21.10;99.90;;;;;;5051338;28;20623;-60
2023/07/04 04:24:32;;;;;;;2.95;1.60;;;21.20;99.90;;;;;;5051276;28;20213;-60
2023/07/04 04:27:02;;;;;;;3.25;1.88;;;21.20;99.90;;;;;;5051418;28;20205;-59
2023/07/04 04:29:29;;;;;;;3.00;1.90;;;21.40;99.90;;;;;;5051382;28;20225;-59
2023/07/04 04:31:55;;;;;;;2.80;1.80;;;21.40;99.90;;;;;;5051269;28;20661;-60
2023/07/04 04:34:22;;;;;;;2.20;1.88;;;21.40;99.90;;;;;;5051185;28;20205;-60
2023/07/04 04:36:50;;;;;;;2.33;1.83;;;21.50;99.90;;;;;;5050747;28;20210;-60
2023/07/04 04:39:17;;;;;;;4.80;1.48;;;21.50;99.90;;;;;;5051030;28;20221;-60
2023/07/04 04:41:44;;;;;;;3.47;1.80;;;21.60;99.90;;;;;;5050949;28;20205;-60
2023/07/04 04:44:10;;;;;;;2.00;1.80;;;21.70;99.90;;;;;;5051201;28;20268;-60
2023/07/04 04:46:40;;;;;;;2.80;1.83;;;21.80;99.90;;;;;;5050667;28;20677;-60
2023/07/04 04:49:08;;;;;;;1.98;1.60;;;21.90;99.90;;;;;;5051116;28;20225;-59
2023/07/04 04:51:35;;;;;;;3.25;1.83;;;22.00;99.90;;;;;;5051381;28;20305;-59
2023/07/04 04:54:03;;;;;;;3.10;1.80;;;22.10;99.90;;;;;;5051042;28;20266;-60
2023/07/04 04:56:32;;;;;;;3.17;1.90;;;22.10;99.90;;;;;;5050980;28;20205;-59
2023/07/04 04:58:58;;;;;;;2.80;1.83;;;22.30;99.90;;;;;;5050802;28;20359;-60
2023/07/04 05:01:25;;;;;;;2.75;1.70;;;22.40;99.90;;;;;;5050867;28;20630;-60
2023/07/04 05:03:54;;;;;;;3.47;1.98;;;22.60;99.90;;;;;;5051027;28;20212;-60
2023/07/04 05:06:22;;;;;;;3.10;1.65;;;22.80;99.90;;;;;;5050674;28;20259;-59
2023/07/04 05:08:49;;;;;;;3.92;1.80;;;23.00;99.90;;;;;;5050498;28;20229;-60
2023/07/04 05:11:18;;;;;;;2.15;1.52;;;23.60;99.90;;;;;;5050966;28;20205;-60
2023/07/04 05:13:45;;;;;;;2.05;1.50;;;24.20;99.90;;;;;;5050683;28;20562;-60
2023/07/04 05:16:15;;;;;;;4.13;1.60;;;24.50;99.90;;;;;;5051220;28;20277;-60
2023/07/04 05:18:43;;;;;;;2.55;1.60;;;24.60;99.90;;;;;;5054497;28;20263;-58
2023/07/04 05:21:11;;;;;;;3.75;1.50;;;24.60;99.90;;;;;;5054744;28;20634;-59
2023/07/04 05:23:39;;;;;;;3.78;1.45;;;24.70;99.90;;;;;;5055017;28;20213;-58
2023/07/04 05:26:08;;;;;;;5.45;2.53;;;24.70;99.90;;;;;;5054552;28;20558;-59
2023/07/04 05:28:37;;;;;;;3.72;1.75;;;24.80;99.90;;;;;;5054686;28;20505;-59
2023/07/04 05:31:07;;;;;;;5.78;1.80;;;24.80;99.90;;;;;;5054691;28;20209;-58
2023/07/04 05:33:34;;;;;;;7.88;1.73;;;24.90;99.90;;;;;;5054540;28;20205;-59
2023/07/04 05:36:06;;;;;;;4.82;2.13;;;25.30;99.90;;;;;;5054507;28;20559;-59
2023/07/04 05:38:33;;;;;;;3.63;1.45;;;26.10;99.90;;;;;;5054662;28;20234;-59
2023/07/04 05:41:00;;;;;;;9.93;1.75;;;27.20;99.90;;;;;;5054438;28;20205;-60
2023/07/04 05:43:28;;;;;;;3.75;1.70;;;28.40;97.00;;;;;;5054520;28;20205;-59
2023/07/04 05:45:56;;;;;;;7.60;1.90;;;29.10;94.90;;;;;;5054179;28;20206;-59
2023/07/04 05:48:23;;;;;;;3.65;1.40;;;29.40;93.40;;;;;;5053794;28;20321;-59
2023/07/04 05:50:54;;;;;;;6.78;2.25;;;29.70;92.50;;;;;;5054158;28;20206;-60
2023/07/04 05:53:23;;;;;;;3.72;1.58;;;30.30;90.20;;;;;;5054377;28;20275;-60
2023/07/04 05:55:50;;;;;;;4.05;1.58;;;30.30;88.30;;;;;;5053915;28;20300;-60
2023/07/04 05:58:17;;;;;;;5.43;1.90;;;30.30;87.20;;;;;;5054106;28;20230;-60
2023/07/04 06:00:44;;;;;;;3.92;1.70;;;30.20;87.00;;;;;;5054170;28;20258;-59
2023/07/04 06:03:15;;;;;;;5.32;1.70;;;30.10;85.50;;;;;;5054038;28;20219;-60
2023/07/04 06:05:42;;;;;;;3.35;1.70;;;30.10;84.90;;;;;;5053933;28;20306;-60
2023/07/04 06:08:08;;;;;;;2.05;1.40;;;30.20;84.10;;;;;;5054107;28;20222;-60
2023/07/04 06:10:36;;;;;;;3.13;1.80;;;30.40;83.90;;;;;;5054201;28;20209;-59
2023/07/04 06:13:03;;;;;;;2.75;1.50;;;31.10;81.20;;;;;;5053896;28;20673;-60
2023/07/04 06:15:30;;;;;;;4.00;2.00;;;31.40;78.50;;;;;;5053998;28;20738;-59
2023/07/04 06:17:57;;;;;;;2.92;1.85;;;31.40;76.70;;;;;;5053886;28;20240;-59
2023/07/04 06:20:26;;;;;;;3.92;2.13;;;32.50;75.40;;;;;;5054175;28;20209;-59
2023/07/04 06:22:53;;;;;;;3.67;1.95;;;34.10;70.70;;;;;;5053830;28;20210;-59
2023/07/04 06:25:19;;;;;;;6.97;1.73;;;35.40;64.60;;;;;;5053709;28;20670;-59
2023/07/04 06:27:46;;;;;;;3.20;1.75;;;36.70;62.60;;;;;;5052231;28;20677;-60
2023/07/04 06:30:13;;;;;;;2.75;1.70;;;37.10;59.70;;;;;;5053897;28;20225;-59
2023/07/04 06:32:41;;;;;;;4.97;1.75;;;37.70;56.20;;;;;;5053574;28;20205;-60
2023/07/04 06:35:08;;;;;;;4.30;1.98;;;38.20;55.20;;;;;;5054097;28;20213;-59
2023/07/04 06:37:36;;;;;;;4.30;1.75;;;38.90;53.50;;;;;;5053237;28;20229;-60
2023/07/04 06:40:03;;;;;;;6.72;2.05;;;39.30;52.60;;;;;;5053826;28;20210;-60
2023/07/04 06:42:31;;;;;;;3.45;2.08;;;39.70;50.70;;;;;;5053300;28;20210;-59
2023/07/04 06:44:58;;;;;;;4.90;1.92;;;39.70;49.70;;;;;;5054157;28;20205;-60
2023/07/04 06:47:25;;;;;;;3.75;2.08;;;39.80;48.30;;;;;;5053850;28;20214;-59
2023/07/04 06:49:51;;;;;;;8.18;2.13;;;39.10;48.20;;;;;;5054202;28;20271;-60
2023/07/04 06:52:18;;;;;;;4.63;2.15;;;37.80;49.50;;;;;;5054014;28;20271;-58
2023/07/04 06:54:49;;;;;;;9.40;2.50;;;36.80;51.30;;;;;;5054280;28;20696;-58
2023/07/04 06:57:15;;;;;;;4.47;2.20;;;36.20;52.40;;;;;;5053686;28;20236;-58
2023/07/04 06:59:44;;;;;;;7.20;2.08;;;35.50;53.40;;;;;;5053782;28;20229;-59
2023/07/04 07:02:11;;;;;;;5.32;2.38;;;34.80;54.60;;;;;;5053734;28;20470;-58
2023/07/04 07:04:38;;;;;;;6.07;2.45;;;34.10;55.20;;;;;;5053530;28;20210;-58
2023/07/04 07:07:08;;;;;;;4.22;2.25;;;33.50;55.70;;;;;;5053139;28;20255;-58
2023/07/04 07:09:37;;;;;;;7.80;2.50;;;33.50;56.40;;;;;;5053271;28;20545;-58
2023/07/04 07:12:07;;;;;;;5.85;2.92;;;33.70;55.60;;;;;;5053757;28;20213;-58
2023/07/04 07:14:33;;;;;;;8.77;3.38;;;33.20;55.30;;;;;;5053604;28;20205;-58
2023/07/04 07:17:00;;;;;;;7.40;2.67;;;33.20;55.50;;;;;;5052764;28;20216;-57
2023/07/04 07:19:27;;;;;;;6.97;2.72;;;33.10;55.40;;;;;;5052897;28;20279;-57
2023/07/04 07:21:53;;;;;;;5.22;2.22;;;32.80;55.10;;;;;;5052609;28;20206;-56
2023/07/04 07:24:20;;;;;;;5.63;2.60;;;31.70;56.90;;;;;;5052609;28;20259;-57
2023/07/04 07:26:47;;;;;;;5.70;2.25;;;30.30;59.90;;;;;;5052341;28;20201;-57
2023/07/04 07:29:15;;;;;;;5.32;2.35;;;29.80;61.40;;;;;;5052642;28;20283;-56
2023/07/04 07:31:42;;;;;;;5.93;2.65;;;30.00;62.00;;;;;;5052561;28;20237;-57
2023/07/04 07:34:08;;;;;;;4.95;2.45;;;30.10;62.20;;;;;;5052440;28;20201;-56
2023/07/04 07:36:37;;;;;;;4.50;2.33;;;30.20;61.60;;;;;;5052398;28;20271;-57
2023/07/04 07:39:06;;;;;;;3.90;2.20;;;30.50;60.70;;;;;;5051899;28;20265;-56
2023/07/04 07:41:36;;;;;;;8.57;2.80;;;30.70;60.40;;;;;;5051599;28;20271;-57
2023/07/04 07:44:04;;;;;;;6.82;2.75;;;30.40;59.60;;;;;;5052314;28;20210;-57
2023/07/04 07:46:32;;;;;;;7.57;2.85;;;30.00;60.40;;;;;;5052061;28;20694;-56
2023/07/04 07:49:00;;;;;;;6.13;2.75;;;29.90;60.30;;;;;;5051978;28;20230;-57
2023/07/04 07:51:27;;;;;;;5.70;2.60;;;30.10;60.40;;;;;;5052120;28;20208;-57
2023/07/04 07:53:55;;;;;;;5.53;2.85;;;30.30;59.90;;;;;;5052238;28;20209;-57
2023/07/04 07:56:25;;;;;;;11.18;3.15;;;30.80;58.80;;;;;;5051914;28;20209;-56
2023/07/04 07:58:53;;;;;;;6.65;2.80;;;31.60;57.90;;;;;;5051909;28;20325;-57
2023/07/04 08:01:22;;;;;;;8.00;2.75;;;32.40;56.70;;;;;;5052018;28;20625;-57
2023/07/04 08:03:50;;;;;;;5.47;2.65;;;33.10;55.00;;;;;;5052013;28;20213;-56
2023/07/04 08:06:23;;;;;;;5.63;2.67;;;33.30;54.60;;;;;;5051695;28;20240;-56
2023/07/04 08:08:49;;;;;;;7.70;3.17;;;33.30;54.70;;;;;;5051980;28;20584;-57
2023/07/04 08:11:17;;;;;;;5.43;2.80;;;33.20;54.00;;;;;;5051705;28;20201;-56
2023/07/04 08:13:44;;;;;;;5.65;2.75;;;32.90;54.60;;;;;;5051604;28;20354;-57
2023/07/04 08:16:11;;;;;;;9.35;3.22;;;32.50;54.50;;;;;;5051121;28;20675;-56
2023/07/04 08:18:37;;;;;;;7.38;3.55;;;32.50;54.30;;;;;;5051675;28;20294;-56
2023/07/04 08:21:05;;;;;;;7.82;4.10;;;32.70;53.80;;;;;;5051897;28;20588;-56
2023/07/04 08:23:33;;;;;;;6.20;3.20;;;33.20;53.30;;;;;;5051588;28;20636;-56
2023/07/04 08:25:59;;;;;;;6.80;3.85;;;34.10;51.00;;;;;;5051569;28;20213;-56
2023/07/04 08:28:26;;;;;;;8.70;4.20;;;34.40;50.80;;;;;;5051468;28;20646;-56
2023/07/04 08:30:54;;;;;;;6.68;3.90;;;34.00;50.90;;;;;;5051685;28;20292;-57
2023/07/04 08:33:20;;;;;;;7.32;3.75;;;32.90;52.40;;;;;;5051880;28;20213;-56
2023/07/04 08:35:58;;;;;;;6.57;3.53;;;32.60;54.00;;;;;;5051460;28;20205;-57
2023/07/04 08:38:26;;;;;;;6.55;3.17;;;33.40;52.40;;;;;;5051543;28;20224;-56
2023/07/04 08:40:53;;;;;;;5.28;3.08;;;34.30;50.70;;;;;;5051578;28;20215;-58
2023/07/04 08:43:27;;;;;;;7.15;3.00;;;34.30;50.60;;;;;;5051142;28;20673;-58
2023/07/04 08:45:55;;;;;;;8.50;3.83;;;33.90;51.50;;;;;;5051269;28;20205;-57
2023/07/04 08:48:24;;;;;;;8.75;3.75;;;33.60;51.90;;;;;;5051381;28;20279;-57
2023/07/04 08:50:53;;;;;;;6.95;4.15;;;33.10;51.80;;;;;;5051418;28;20280;-56
2023/07/04 08:53:22;;;;;;;9.98;3.60;;;33.10;52.30;;;;;;5051417;28;20696;-56
2023/07/04 08:55:56;;;;;;;6.25;3.22;;;33.10;51.80;;;;;;5050804;28;20578;-57
2023/07/04 08:58:29;;;;;;;7.72;3.80;;;32.70;52.40;;;;;;5051371;28;20245;-60
2023/07/04 09:00:59;;;;;;;7.75;3.47;;;31.70;55.10;;;;;;5051179;28;20205;-57
2023/07/04 09:03:33;;;;;;;6.30;3.67;;;31.20;55.00;;;;;;5051097;28;20290;-57
2023/07/04 09:06:06;;;;;;;7.30;3.63;;;30.60;56.40;;;;;;5050732;28;20210;-57
2023/07/04 09:08:50;;;;;;;7.55;4.03;;;30.00;57.60;;;;;;5051228;28;20279;-58
2023/07/04 09:11:19;;;;;;;7.65;4.10;;;30.10;58.00;;;;;;5050824;28;20645;-60
2023/07/04 09:13:50;;;;;;;7.35;3.80;;;30.20;57.60;;;;;;5050805;28;20209;-58
2023/07/04 09:16:22;;;;;;;8.35;3.50;;;30.20;57.60;;;;;;5050892;28;20562;-59
2023/07/04 09:18:58;;;;;;;6.28;3.40;;;30.00;57.90;;;;;;5050756;28;20229;-58
2023/07/04 09:21:26;;;;;;;4.88;3.28;;;29.90;58.40;;;;;;5051305;28;20588;-60
2023/07/04 09:23:55;;;;;;;10.00;4.07;;;29.50;58.90;;;;;;5051176;28;20233;-61
2023/07/04 09:26:26;;;;;;;8.00;3.30;;;29.30;59.80;;;;;;5048361;28;20248;-59
2023/07/04 09:28:54;;;;;;;7.88;3.58;;;29.00;60.80;;;;;;5050590;28;20225;-61
2023/07/04 09:31:24;;;;;;;6.53;3.30;;;28.80;60.90;;;;;;5050692;28;20296;-60
2023/07/04 09:33:53;;;;;;;6.38;3.67;;;28.90;60.50;;;;;;5050887;28;20217;-60
2023/07/04 09:36:25;;;;;;;8.10;3.47;;;29.20;60.30;;;;;;5050242;28;20677;-61
2023/07/04 09:38:54;;;;;;;7.75;3.50;;;29.50;60.40;;;;;;5050513;28;20678;-62
2023/07/04 09:41:25;;;;;;;6.55;3.58;;;29.70;59.00;;;;;;5050161;28;20255;-62
2023/07/04 09:43:52;;;;;;;7.63;3.63;;;29.40;60.00;;;;;;5050871;28;20721;-61
2023/07/04 09:46:23;;;;;;;7.88;3.30;;;29.10;60.70;;;;;;5050161;28;20206;-61
2023/07/04 09:48:50;;;;;;;8.07;3.60;;;28.90;61.90;;;;;;5050261;28;20225;-61
2023/07/04 09:51:26;;;;;;;7.07;3.50;;;29.10;61.50;;;;;;5050596;28;20213;-64
2023/07/04 09:54:09;;;;;;;6.07;3.30;;;29.40;60.90;;;;;;5050018;28;20201;-62
2023/07/04 09:56:38;;;;;;;6.35;3.75;;;29.60;60.00;;;;;;5050064;28;20210;-62
2023/07/04 09:59:16;;;;;;;7.85;5.25;;;29.60;59.80;;;;;;5050427;28;20342;-60
2023/07/04 10:01:45;;;;;;;9.65;4.07;;;29.60;60.00;;;;;;5050185;28;20205;-61
2023/07/04 10:04:14;;;;;;;5.38;3.63;;;29.50;60.00;;;;;;5052675;28;20210;-59
2023/07/04 10:06:43;;;;;;;7.70;4.00;;;29.20;60.20;;;;;;5053726;28;20299;-57
2023/07/04 10:09:17;;;;;;;7.10;3.70;;;28.70;62.40;;;;;;5054359;28;20230;-54
2023/07/04 10:11:47;;;;;;;8.57;4.07;;;28.30;63.70;;;;;;5053823;28;20209;-55
2023/07/04 10:14:14;;;;;;;7.15;3.40;;;28.20;64.50;;;;;;5053964;28;20209;-56
2023/07/04 10:16:51;;;;;;;9.18;4.47;;;28.20;63.70;;;;;;5053870;28;20292;-56
2023/07/04 10:19:20;;;;;;;7.50;4.47;;;28.20;63.60;;;;;;5053833;28;20320;-55
2023/07/04 10:21:50;;;;;;;6.07;3.80;;;28.20;64.00;;;;;;5054022;28;20255;-56
2023/07/04 10:24:19;;;;;;;6.20;3.53;;;28.10;64.10;;;;;;5054053;28;20288;-54
2023/07/04 10:26:50;;;;;;;6.45;3.58;;;27.90;64.20;;;;;;5053648;28;20194;-53
2023/07/04 10:29:20;;;;;;;7.50;3.78;;;27.60;64.30;;;;;;5053687;28;20634;-54
2023/07/04 10:31:49;;;;;;;5.93;3.80;;;27.50;64.00;;;;;;5053604;28;20221;-55
2023/07/04 10:34:19;;;;;;;6.10;3.80;;;27.80;64.50;;;;;;5053898;28;20288;-54
2023/07/04 10:36:49;;;;;;;6.65;4.38;;;28.10;63.00;;;;;;5053437;28;20210;-54
2023/07/04 10:39:17;;;;;;;10.20;4.10;;;28.30;63.30;;;;;;5053497;28;20689;-54
2023/07/04 10:41:53;;;;;;;6.68;3.70;;;28.60;62.70;;;;;;5053627;28;20201;-54
2023/07/04 10:44:23;;;;;;;8.80;3.30;;;28.80;62.30;;;;;;5053265;28;20233;-56
2023/07/04 10:46:52;;;;;;;7.97;3.92;;;29.10;61.90;;;;;;5053648;28;20267;-54
2023/07/04 10:49:22;;;;;;;8.80;4.63;;;29.50;61.40;;;;;;5053263;28;20228;-54
2023/07/04 10:51:52;;;;;;;8.02;4.55;;;29.90;60.30;;;;;;5053544;28;20209;-54
2023/07/04 10:54:19;;;;;;;8.13;4.65;;;30.00;59.20;;;;;;5053372;28;20205;-54
2023/07/04 10:56:51;;;;;;;6.25;4.55;;;29.90;59.10;;;;;;5053071;28;20220;-55
2023/07/04 10:59:26;;;;;;;7.03;4.70;;;29.50;60.00;;;;;;5053006;28;20326;-54
2023/07/04 11:02:01;;;;;;;8.57;4.15;;;29.10;60.80;;;;;;5053461;28;20208;-55
2023/07/04 11:04:32;;;;;;;7.30;4.30;;;29.20;61.00;;;;;;5053648;28;20205;-54
2023/07/04 11:07:03;;;;;;;6.32;4.35;;;29.30;60.60;;;;;;5052728;28;20216;-54
2023/07/04 11:09:35;;;;;;;8.52;4.65;;;29.50;60.00;;;;;;5053253;28;20231;-54
2023/07/04 11:12:05;;;;;;;9.75;4.80;;;29.70;59.40;;;;;;5052922;28;20202;-57
2023/07/04 11:14:39;;;;;;;6.70;4.28;;;29.80;59.20;;;;;;5052695;28;20206;-61
2023/07/04 11:17:12;;;;;;;8.98;4.47;;;30.00;58.30;;;;;;5052634;28;20205;-61
2023/07/04 11:19:55;;;;;;;6.25;3.70;;;30.20;58.10;;;;;;5052772;28;20256;-60
2023/07/04 11:22:37;;;;;;;6.53;4.07;;;30.50;57.20;;;;;;5053073;28;20205;-58
2023/07/04 11:25:28;;;;;;;5.97;4.38;;;30.50;57.40;;;;;;5052782;28;20611;-58
2023/07/04 11:28:26;;;;;;;5.88;4.15;;;30.50;57.40;;;;;;5052474;28;20287;-59
2023/07/04 11:31:08;;;;;;;6.85;4.40;;;30.20;57.40;;;;;;5053161;28;20205;-58
2023/07/04 11:33:41;;;;;;;10.13;4.10;;;30.10;57.90;;;;;;5053027;28;20209;-59
2023/07/04 11:36:17;;;;;;;5.57;4.22;;;30.00;58.30;;;;;;5052655;28;20209;-57
2023/07/04 11:38:52;;;;;;;9.00;3.90;;;29.90;58.60;;;;;;5052721;28;20701;-58
2023/07/04 11:41:28;;;;;;;10.38;4.70;;;29.80;58.60;;;;;;5052644;28;20201;-58
2023/07/04 11:43:56;;;;;;;8.57;4.63;;;29.80;58.10;;;;;;5052783;28;20220;-58
2023/07/04 11:46:28;;;;;;;6.22;4.20;;;29.90;57.40;;;;;;5052328;28;20237;-58
2023/07/04 11:48:56;;;;;;;6.22;4.07;;;30.00;56.40;;;;;;5052277;28;20644;-59
2023/07/04 11:51:26;;;;;;;9.50;4.72;;;30.00;56.80;;;;;;5052288;28;20665;-59
2023/07/04 11:53:58;;;;;;;6.57;4.53;;;30.10;56.50;;;;;;5052743;28;20267;-58
2023/07/04 11:56:37;;;;;;;6.18;3.83;;;30.20;56.40;;;;;;5052436;28;20300;-58
2023/07/04 11:59:42;;;;;;;6.97;4.00;;;30.00;56.10;;;;;;5052640;28;20224;-59
2023/07/04 12:02:28;;;;;;;6.55;3.90;;;29.70;56.50;;;;;;5052988;28;20696;-59
2023/07/04 12:04:56;;;;;;;6.18;3.97;;;29.20;58.00;;;;;;5052614;28;20228;-58
2023/07/04 12:07:33;;;;;;;7.82;4.07;;;28.70;58.80;;;;;;5052110;28;20232;-58
2023/07/04 12:10:06;;;;;;;7.22;4.47;;;28.30;59.70;;;;;;5052362;28;20662;-59
2023/07/04 12:12:37;;;;;;;6.55;4.43;;;28.30;59.90;;;;;;5052821;28;20479;-57
2023/07/04 12:15:08;;;;;;;6.75;4.47;;;28.50;59.30;;;;;;5052139;28;20240;-58
2023/07/04 12:17:39;;;;;;;6.95;3.88;;;28.60;59.30;;;;;;5051476;28;20321;-59
2023/07/04 12:20:09;;;;;;;11.35;5.97;;;28.70;59.10;;;;;;5051594;28;20368;-60
2023/07/04 12:22:37;;;;;;;8.02;4.60;;;28.90;59.30;;;;;;5052478;28;20216;-59
2023/07/04 12:25:13;;;;;;;7.15;4.05;;;29.20;59.00;;;;;;5052063;28;20621;-57
2023/07/04 12:27:41;;;;;;;7.82;4.65;;;29.60;58.00;;;;;;5051002;28;20224;-57
2023/07/04 12:30:11;;;;;;;5.85;4.63;;;29.80;57.80;;;;;;5051691;28;20294;-58
2023/07/04 12:32:39;;;;;;;7.32;4.70;;;29.90;57.60;;;;;;5051927;28;20241;-57
2023/07/04 12:35:07;;;;;;;8.40;4.55;;;30.10;57.60;;;;;;5051667;28;20209;-60
2023/07/04 12:37:39;;;;;;;9.00;4.30;;;30.30;57.10;;;;;;5051484;28;20285;-58
2023/07/04 12:40:12;;;;;;;8.20;4.65;;;30.50;56.90;;;;;;5051385;28;20222;-59
2023/07/04 12:42:39;;;;;;;7.32;4.30;;;30.70;56.60;;;;;;5051569;28;20201;-58
2023/07/04 12:45:10;;;;;;;7.28;4.50;;;30.90;55.10;;;;;;5051159;28;20228;-61
2023/07/04 12:47:38;;;;;;;8.65;4.60;;;30.70;55.50;;;;;;5051388;28;20575;-60
2023/07/04 12:50:06;;;;;;;7.75;4.18;;;30.90;55.30;;;;;;5051072;28;20296;-58
2023/07/04 12:52:37;;;;;;;7.75;4.85;;;30.40;56.20;;;;;;5051254;28;20208;-58
2023/07/04 12:55:08;;;;;;;6.93;4.22;;;29.90;56.80;;;;;;5050906;28;20674;-60